createdAt,value
2022-08-23T00:01:48.581Z,1.25
2022-08-23T00:04:21.284Z,1.40
2022-08-23T00:06:51.723Z,1.30
2022-08-23T00:09:21.855Z,1.02
2022-08-23T00:11:52.719Z,1.25
2022-08-23T00:14:27.278Z,1.35
2022-08-23T00:16:56.907Z,0.90
2022-08-23T00:19:28.892Z,0.75
2022-08-23T00:21:58.118Z,1.08
2022-08-23T00:24:27.254Z,0.90
2022-08-23T00:27:00.092Z,0.90
2022-08-23T00:29:33.214Z,1.10
2022-08-23T00:32:02.405Z,1.00
2022-08-23T00:34:31.641Z,1.00
2022-08-23T00:37:00.006Z,0.80
2022-08-23T00:39:29.214Z,1.50
2022-08-23T00:44:51.591Z,1.00
2022-08-23T00:47:40.921Z,1.10
2022-08-23T00:50:24.183Z,0.93
2022-08-23T00:53:03.099Z,1.10
2022-08-23T00:55:32.482Z,1.10
2022-08-23T00:58:01.684Z,1.00
2022-08-23T01:00:33.916Z,0.98
2022-08-23T01:03:05.239Z,1.15
2022-08-23T01:05:48.729Z,1.10
2022-08-23T01:08:17.792Z,1.13
2022-08-23T01:10:51.157Z,1.10
2022-08-23T01:13:25.826Z,1.00
2022-08-23T01:15:59.118Z,1.20
2022-08-23T01:18:31.036Z,1.20
2022-08-23T01:21:05.853Z,1.30
2022-08-23T01:23:44.486Z,1.27
2022-08-23T01:26:15.818Z,1.20
2022-08-23T01:28:51.313Z,1.25
2022-08-23T01:31:21.184Z,1.13
2022-08-23T01:33:55.392Z,1.00
2022-08-23T01:36:24.449Z,1.20
2022-08-23T01:38:54.117Z,1.60
2022-08-23T01:41:23.726Z,1.45
2022-08-23T01:43:52.609Z,1.33
2022-08-23T01:46:22.949Z,1.20
2022-08-23T01:48:53.239Z,1.13
2022-08-23T01:51:22.827Z,1.08
2022-08-23T01:53:51.711Z,1.52
2022-08-23T01:56:28.089Z,1.10
2022-08-23T01:59:09.106Z,1.20
2022-08-23T02:01:38.294Z,1.50
2022-08-23T02:04:07.603Z,1.17
2022-08-23T02:06:36.015Z,1.45
2022-08-23T02:09:05.943Z,1.33
2022-08-23T02:11:48.671Z,1.20
2022-08-23T02:14:19.619Z,1.42
2022-08-23T02:16:59.956Z,1.30
2022-08-23T02:19:33.287Z,1.20
2022-08-23T02:22:01.870Z,1.27
2022-08-23T02:24:31.666Z,1.98
2022-08-23T02:27:04.963Z,1.55
2022-08-23T02:29:39.177Z,1.50
2022-08-23T02:32:09.660Z,1.70
2022-08-23T02:34:38.919Z,1.83
2022-08-23T02:37:08.158Z,1.92
2022-08-23T02:39:38.695Z,2.38
2022-08-23T02:42:11.523Z,2.00
2022-08-23T02:44:40.515Z,1.90
2022-08-23T02:47:09.326Z,2.30
2022-08-23T02:49:37.929Z,2.15
2022-08-23T02:52:07.604Z,2.20
2022-08-23T02:54:37.333Z,2.20
2022-08-23T02:57:06.512Z,2.45
2022-08-23T02:59:36.508Z,2.53
2022-08-23T03:02:05.267Z,2.42
2022-08-23T03:04:33.582Z,2.63
2022-08-23T03:07:01.871Z,2.67
2022-08-23T03:09:30.380Z,2.00
2022-08-23T03:12:14.712Z,2.70
2022-08-23T03:14:44.779Z,2.78
2022-08-23T03:17:14.356Z,2.42
2022-08-23T03:19:43.994Z,2.72
2022-08-23T03:22:12.427Z,2.65
2022-08-23T03:24:40.660Z,2.67
2022-08-23T03:27:08.888Z,2.42
2022-08-23T03:29:41.350Z,2.83
2022-08-23T03:32:11.948Z,3.38
2022-08-23T03:34:43.941Z,2.40
2022-08-23T03:37:14.221Z,2.90
2022-08-23T03:39:42.662Z,2.77
2022-08-23T03:42:12.168Z,2.67
2022-08-23T03:44:40.774Z,2.70
2022-08-23T03:47:10.929Z,2.92
2022-08-23T03:49:40.256Z,2.88
2022-08-23T03:52:11.497Z,2.67
2022-08-23T03:54:40.213Z,2.28
2022-08-23T03:57:10.638Z,2.60
2022-08-23T03:59:41.599Z,2.70
2022-08-23T04:02:12.246Z,2.60
2022-08-23T04:04:40.512Z,2.75
2022-08-23T04:07:08.679Z,2.90
2022-08-23T04:09:37.166Z,2.60
2022-08-23T04:12:11.943Z,2.72
2022-08-23T04:14:46.925Z,3.58
2022-08-23T04:17:17.887Z,3.50
2022-08-23T04:19:46.659Z,3.60
2022-08-23T04:22:17.506Z,3.50
2022-08-23T04:24:47.346Z,4.07
2022-08-23T04:27:16.108Z,4.05
2022-08-23T04:29:44.623Z,3.88
2022-08-23T04:32:14.811Z,4.00
2022-08-23T04:34:57.778Z,3.58
2022-08-23T04:37:25.992Z,4.00
2022-08-23T04:40:11.900Z,4.20
2022-08-23T04:42:40.825Z,4.68
2022-08-23T04:45:11.702Z,3.90
2022-08-23T04:47:41.549Z,4.45
2022-08-23T04:50:12.187Z,3.80
2022-08-23T04:52:40.891Z,3.88
2022-08-23T04:55:09.693Z,6.53
2022-08-23T04:57:38.455Z,6.22
2022-08-23T05:00:08.182Z,3.42
2022-08-23T05:02:36.834Z,4.05
2022-08-23T05:05:06.027Z,3.75
2022-08-23T05:07:42.505Z,3.65
2022-08-23T05:10:15.102Z,3.88
2022-08-23T05:12:43.850Z,3.22
2022-08-23T05:15:13.241Z,2.80
2022-08-23T05:17:41.770Z,3.72
2022-08-23T05:20:11.812Z,3.88
2022-08-23T05:22:42.836Z,3.45
2022-08-23T05:25:11.539Z,3.13
2022-08-23T05:27:40.286Z,2.80
2022-08-23T05:30:12.654Z,3.05
2022-08-23T05:32:44.075Z,3.47
2022-08-23T05:35:12.913Z,2.80
2022-08-23T05:37:42.474Z,3.47
2022-08-23T05:40:12.015Z,3.45
2022-08-23T05:42:40.401Z,2.78
2022-08-23T05:45:09.769Z,3.40
2022-08-23T05:47:38.243Z,3.28
2022-08-23T05:50:07.570Z,3.20
2022-08-23T05:52:35.911Z,3.63
2022-08-23T05:55:08.356Z,4.03
2022-08-23T05:57:38.874Z,4.18
2022-08-23T06:00:11.769Z,4.03
2022-08-23T06:02:40.882Z,4.00
2022-08-23T06:05:10.277Z,4.05
2022-08-23T06:07:39.033Z,4.03
2022-08-23T06:10:16.302Z,3.60
2022-08-23T06:12:45.023Z,3.25
2022-08-23T06:15:13.236Z,2.85
2022-08-23T06:17:41.467Z,2.83
2022-08-23T06:20:11.526Z,2.08
2022-08-23T06:22:39.786Z,2.72
2022-08-23T06:25:10.412Z,2.67
2022-08-23T06:27:38.871Z,2.90
2022-08-23T06:30:08.376Z,2.88
2022-08-23T06:32:42.108Z,2.80
2022-08-23T06:35:38.067Z,2.83
2022-08-23T06:38:03.443Z,2.40
2022-08-23T06:40:33.292Z,3.00
2022-08-23T06:43:03.411Z,2.42
2022-08-23T06:45:34.979Z,3.28
2022-08-23T06:48:04.276Z,2.92
2022-08-23T06:50:35.717Z,3.03
2022-08-23T06:55:53.157Z,3.08
2022-08-23T06:58:22.454Z,2.97
2022-08-23T07:00:57.457Z,2.88
2022-08-23T07:03:47.557Z,2.88
2022-08-23T07:06:26.425Z,2.80
2022-08-23T07:08:55.738Z,2.58
2022-08-23T07:11:31.819Z,2.30
2022-08-23T07:14:02.002Z,1.88
2022-08-23T07:16:35.051Z,2.25
2022-08-23T07:19:03.966Z,2.20
2022-08-23T07:21:33.581Z,2.10
2022-08-23T07:24:02.077Z,2.42
2022-08-23T07:26:36.031Z,3.20
2022-08-23T07:29:05.777Z,2.72
2022-08-23T07:31:40.700Z,2.70
2022-08-23T07:34:10.497Z,2.97
2022-08-23T07:36:42.202Z,2.45
2022-08-23T07:39:11.873Z,2.85
2022-08-23T07:41:42.533Z,2.55
2022-08-23T07:44:13.497Z,2.53
2022-08-23T07:46:57.583Z,2.78
2022-08-23T07:52:00.017Z,2.90
2022-08-23T07:54:29.315Z,2.63
2022-08-23T07:56:59.223Z,3.20
2022-08-23T07:59:31.436Z,2.75
2022-08-23T08:02:02.969Z,3.13
2022-08-23T08:04:32.136Z,3.03
2022-08-23T08:07:18.282Z,3.10
2022-08-23T08:09:48.529Z,3.00
2022-08-23T08:12:18.568Z,3.28
2022-08-23T08:14:48.578Z,3.08
2022-08-23T08:17:18.546Z,3.60
2022-08-23T08:19:47.220Z,4.00
2022-08-23T08:22:15.509Z,3.38
2022-08-23T08:24:44.172Z,3.85
2022-08-23T08:27:12.465Z,3.47
2022-08-23T08:29:44.022Z,8.70
2022-08-23T08:32:13.869Z,4.10
2022-08-23T08:34:43.443Z,3.15
2022-08-23T08:37:12.060Z,3.35
2022-08-23T08:39:45.827Z,3.60
2022-08-23T08:42:39.555Z,3.58
2022-08-23T08:45:13.381Z,3.38
2022-08-23T08:47:46.457Z,3.53
2022-08-23T08:50:24.189Z,3.88
2022-08-23T08:52:56.360Z,3.80
2022-08-23T08:55:29.013Z,3.80
2022-08-23T08:57:58.486Z,3.75
2022-08-23T09:00:32.534Z,4.03
2022-08-23T09:03:05.579Z,4.00
2022-08-23T09:05:39.677Z,4.63
2022-08-23T09:08:24.534Z,4.00
2022-08-23T09:11:03.952Z,4.28
2022-08-23T09:16:31.772Z,4.18
2022-08-23T09:19:02.788Z,4.60
2022-08-23T09:21:39.988Z,4.22
2022-08-23T09:24:08.753Z,4.57
2022-08-23T09:29:15.794Z,4.38
2022-08-23T09:31:48.516Z,4.38
2022-08-23T09:34:21.163Z,4.20
2022-08-23T09:36:52.303Z,4.38
2022-08-23T09:39:30.635Z,4.90
2022-08-23T09:42:01.087Z,4.55
2022-08-23T09:44:37.718Z,5.00
2022-08-23T09:47:13.475Z,4.75
2022-08-23T09:49:42.857Z,4.55
2022-08-23T09:52:22.039Z,4.70
2022-08-23T09:55:00.931Z,5.05
2022-08-23T09:57:32.297Z,4.45
2022-08-23T10:00:03.421Z,5.22
2022-08-23T10:02:35.613Z,4.88
2022-08-23T10:05:07.889Z,4.70
2022-08-23T10:07:43.100Z,4.70
2022-08-23T10:10:18.753Z,4.55
2022-08-23T10:12:47.888Z,4.70
2022-08-23T10:15:18.387Z,5.00
2022-08-23T10:17:54.047Z,4.90
2022-08-23T10:20:33.487Z,4.85
2022-08-23T10:23:10.731Z,4.97
2022-08-23T10:25:43.825Z,4.88
2022-08-23T10:28:39.354Z,4.68
2022-08-23T10:31:23.244Z,4.32
2022-08-23T10:34:03.904Z,4.72
2022-08-23T10:36:39.624Z,4.82
2022-08-23T10:39:17.430Z,4.10
2022-08-23T10:42:00.078Z,4.60
2022-08-23T10:44:36.474Z,4.80
2022-08-23T10:47:19.817Z,4.93
2022-08-23T10:49:52.629Z,4.25
2022-08-23T10:52:25.002Z,4.10
2022-08-23T10:55:08.607Z,4.07
2022-08-23T10:57:41.794Z,4.35
2022-08-23T11:00:17.819Z,5.35
2022-08-23T11:02:51.396Z,4.50
2022-08-23T11:05:27.175Z,4.32
2022-08-23T11:08:02.946Z,4.75
2022-08-23T11:10:56.006Z,4.72
2022-08-23T11:13:29.375Z,3.55
2022-08-23T11:16:01.480Z,4.13
2022-08-23T11:18:45.987Z,4.30
2022-08-23T11:21:50.374Z,3.95
2022-08-23T11:24:51.367Z,4.50
2022-08-23T11:27:35.742Z,4.50
2022-08-23T11:30:45.184Z,4.35
2022-08-23T11:33:24.388Z,4.18
2022-08-23T11:35:55.165Z,4.20
2022-08-23T11:39:03.977Z,4.45
2022-08-23T11:41:34.149Z,4.50
2022-08-23T11:44:26.951Z,4.22
2022-08-23T11:47:03.734Z,4.10
2022-08-23T11:50:02.682Z,4.15
2022-08-23T11:53:02.343Z,3.83
2022-08-23T11:56:04.205Z,3.92
2022-08-23T11:58:54.518Z,3.83
2022-08-23T12:01:33.177Z,3.83
2022-08-23T12:04:10.510Z,3.55
2022-08-23T12:06:50.534Z,3.70
2022-08-23T12:09:52.631Z,3.70
2022-08-23T12:12:40.148Z,3.92
2022-08-23T12:15:13.719Z,3.60
2022-08-23T12:18:19.276Z,3.97
2022-08-23T12:20:51.497Z,3.78
2022-08-23T12:23:22.731Z,3.88
2022-08-23T12:26:05.761Z,3.67
2022-08-23T12:28:43.937Z,4.38
2022-08-23T12:31:21.286Z,3.72
2022-08-23T12:34:02.679Z,4.40
2022-08-23T12:36:40.148Z,3.67
2022-08-23T12:39:11.858Z,4.05
2022-08-23T12:41:54.160Z,4.50
2022-08-23T12:44:27.069Z,4.13
2022-08-23T12:46:55.616Z,3.88
2022-08-23T12:49:30.175Z,4.20
2022-08-23T12:52:02.012Z,4.65
2022-08-23T12:54:38.189Z,3.95
2022-08-23T12:57:11.716Z,4.20
2022-08-23T13:00:01.937Z,3.90
2022-08-23T13:02:50.824Z,4.10
2022-08-23T13:05:28.041Z,3.72
2022-08-23T13:07:56.449Z,3.47
2022-08-23T13:10:26.586Z,4.35
2022-08-23T13:12:55.277Z,3.72
2022-08-23T13:15:47.305Z,3.70
2022-08-23T13:18:42.786Z,3.92
2022-08-23T13:21:29.086Z,4.35
2022-08-23T13:24:03.436Z,4.57
2022-08-23T13:26:39.130Z,3.92
2022-08-23T13:29:11.631Z,4.43
2022-08-23T13:31:52.449Z,3.85
2022-08-23T13:34:39.804Z,4.35
2022-08-23T13:37:22.838Z,3.13
2022-08-23T13:39:54.384Z,3.83
2022-08-23T13:42:35.376Z,4.22
2022-08-23T13:45:14.077Z,4.35
2022-08-23T13:47:49.656Z,4.55
2022-08-23T13:50:25.124Z,4.55
2022-08-23T13:55:45.695Z,4.90
2022-08-23T13:58:18.476Z,5.32
2022-08-23T14:00:55.366Z,4.95
2022-08-23T14:03:26.293Z,4.70
2022-08-23T14:05:55.111Z,4.35
2022-08-23T14:08:23.772Z,4.85
2022-08-23T14:10:53.447Z,5.13
2022-08-23T14:13:25.989Z,5.10
2022-08-23T14:15:56.647Z,5.25
2022-08-23T14:18:28.698Z,5.25
2022-08-23T14:20:57.584Z,4.97
2022-08-23T14:23:26.262Z,5.03
2022-08-23T14:25:58.541Z,4.80
2022-08-23T14:28:30.112Z,5.10
2022-08-23T14:30:59.132Z,4.95
2022-08-23T14:33:28.855Z,5.68
2022-08-23T14:35:57.403Z,5.18
2022-08-23T14:38:26.147Z,4.80
2022-08-23T14:40:59.138Z,5.13
2022-08-23T14:43:28.468Z,5.90
2022-08-23T14:45:57.598Z,5.60
2022-08-23T14:48:26.469Z,5.10
2022-08-23T14:50:56.999Z,5.20
2022-08-23T14:53:29.760Z,5.43
2022-08-23T14:56:20.546Z,5.05
2022-08-23T14:58:46.467Z,4.97
2022-08-23T15:01:15.669Z,5.15
2022-08-23T15:06:15.086Z,4.80
2022-08-23T15:08:44.500Z,5.05
2022-08-23T15:14:04.488Z,5.00
2022-08-23T15:16:33.469Z,5.18
2022-08-23T15:21:31.774Z,5.47
2022-08-23T15:24:00.021Z,5.57
2022-08-23T15:26:31.393Z,4.72
2022-08-23T15:29:01.751Z,4.90
2022-08-23T15:31:30.104Z,4.88
2022-08-23T15:33:58.595Z,5.22
2022-08-23T15:36:28.183Z,5.60
2022-08-23T15:38:59.579Z,5.63
2022-08-23T15:41:28.246Z,4.82
2022-08-23T15:43:56.642Z,4.85
2022-08-23T15:46:25.505Z,4.95
2022-08-23T15:48:57.911Z,4.70
2022-08-23T15:51:26.535Z,5.13
2022-08-23T15:53:57.602Z,5.55
2022-08-23T15:56:32.222Z,5.40
2022-08-23T15:59:01.197Z,5.10
2022-08-23T16:01:33.697Z,5.55
2022-08-23T16:04:02.420Z,5.10
2022-08-23T16:06:35.833Z,5.85
2022-08-23T16:09:06.692Z,5.25
2022-08-23T16:11:36.618Z,5.55
2022-08-23T16:14:05.420Z,5.40
2022-08-23T16:16:38.564Z,5.57
2022-08-23T16:19:08.901Z,5.70
2022-08-23T16:21:38.087Z,5.47
2022-08-23T16:24:08.009Z,5.40
2022-08-23T16:26:40.392Z,5.55
2022-08-23T16:29:13.431Z,5.40
2022-08-23T16:31:43.182Z,5.50
2022-08-23T16:34:14.895Z,5.97
2022-08-23T16:36:45.755Z,5.90
2022-08-23T16:39:15.545Z,5.30
2022-08-23T16:44:13.493Z,5.90
2022-08-23T16:46:44.331Z,5.97
2022-08-23T16:49:12.718Z,5.65
2022-08-23T16:51:41.085Z,5.63
2022-08-23T16:54:10.101Z,5.93
2022-08-23T16:59:13.017Z,6.10
2022-08-23T17:01:48.323Z,5.97
2022-08-23T17:04:17.185Z,6.13
2022-08-23T17:06:46.884Z,5.47
2022-08-23T17:09:18.800Z,6.15
2022-08-23T17:11:47.810Z,5.68
2022-08-23T17:14:17.639Z,5.57
2022-08-23T17:16:46.939Z,5.32
2022-08-23T17:19:15.917Z,5.90
2022-08-23T17:21:44.925Z,5.15
2022-08-23T17:24:13.230Z,5.22
2022-08-23T17:26:41.843Z,5.45
2022-08-23T17:29:10.468Z,5.07
2022-08-23T17:31:40.452Z,5.47
2022-08-23T17:34:09.089Z,5.45
2022-08-23T17:36:40.058Z,6.00
2022-08-23T17:39:11.150Z,5.20
2022-08-23T17:41:44.982Z,5.57
2022-08-23T17:44:14.526Z,5.78
2022-08-23T17:49:16.714Z,6.55
2022-08-23T17:51:45.467Z,6.72
2022-08-23T17:54:16.095Z,7.38
2022-08-23T17:56:50.046Z,7.40
2022-08-23T17:59:19.857Z,6.63
2022-08-23T18:01:49.686Z,7.82
2022-08-23T18:04:18.333Z,7.72
2022-08-23T18:06:46.964Z,7.65
2022-08-23T18:09:15.471Z,8.20
2022-08-23T18:11:43.745Z,8.20
2022-08-23T18:14:13.269Z,8.45
2022-08-23T18:16:44.097Z,8.75
2022-08-23T18:19:15.656Z,8.13
2022-08-23T18:21:45.486Z,9.48
2022-08-23T18:24:14.473Z,9.70
2022-08-23T18:27:05.719Z,9.10
2022-08-23T18:30:28.842Z,8.80
2022-08-23T18:33:46.742Z,8.65
2022-08-23T18:36:17.123Z,9.53
2022-08-23T18:38:45.633Z,8.98
2022-08-23T18:41:14.254Z,9.63
2022-08-23T18:43:43.249Z,9.95
2022-08-23T18:46:13.948Z,9.32
2022-08-23T18:48:42.869Z,9.13
2022-08-23T18:51:24.560Z,9.07
2022-08-23T18:53:53.097Z,8.85
2022-08-23T18:56:21.572Z,8.00
2022-08-23T18:58:49.820Z,8.40
2022-08-23T19:01:24.240Z,8.48
2022-08-23T19:03:54.051Z,8.82
2022-08-23T19:06:24.340Z,9.20
2022-08-23T19:08:54.394Z,8.93
2022-08-23T19:11:24.511Z,8.10
2022-08-23T19:13:53.242Z,8.57
2022-08-23T19:16:23.567Z,8.02
2022-08-23T19:18:52.685Z,7.93
2022-08-23T19:21:24.556Z,8.23
2022-08-23T19:23:57.747Z,8.40
2022-08-23T19:26:31.754Z,8.57
2022-08-23T19:29:01.023Z,8.23
2022-08-23T19:31:34.501Z,8.13
2022-08-23T19:34:06.150Z,8.60
2022-08-23T19:36:46.297Z,8.15
2022-08-23T19:39:16.903Z,8.50
2022-08-23T19:41:46.556Z,7.70
2022-08-23T19:44:17.654Z,8.30
2022-08-23T19:46:47.268Z,7.32
2022-08-23T19:49:16.653Z,7.78
2022-08-23T19:51:46.672Z,7.40
2022-08-23T19:54:15.374Z,7.78
2022-08-23T19:56:48.601Z,8.40
2022-08-23T19:59:20.622Z,8.23
2022-08-23T20:01:49.812Z,8.73
2022-08-23T20:04:19.724Z,8.85
2022-08-23T20:06:50.954Z,8.73
2022-08-23T20:09:21.385Z,8.52
2022-08-23T20:12:05.688Z,8.65
2022-08-23T20:14:34.682Z,8.25
2022-08-23T20:17:07.389Z,9.32
2022-08-23T20:19:36.678Z,8.50
2022-08-23T20:22:24.656Z,8.63
2022-08-23T20:24:53.945Z,8.65
2022-08-23T20:27:24.098Z,8.85
2022-08-23T20:30:00.565Z,8.57
2022-08-23T20:32:29.999Z,8.57
2022-08-23T20:35:00.843Z,8.20
2022-08-23T20:37:31.585Z,8.55
2022-08-23T20:40:00.903Z,8.93
2022-08-23T20:44:58.221Z,9.23
2022-08-23T20:47:26.875Z,9.40
2022-08-23T20:49:55.740Z,8.40
2022-08-23T20:52:24.158Z,9.55
2022-08-23T20:54:56.733Z,9.63
2022-08-23T20:57:25.658Z,9.75
2022-08-23T20:59:57.044Z,10.57
2022-08-23T21:02:28.759Z,9.77
2022-08-23T21:04:57.432Z,9.95
2022-08-23T21:07:26.063Z,9.32
2022-08-23T21:09:58.976Z,9.30
2022-08-23T21:12:27.261Z,10.10
2022-08-23T21:14:56.892Z,9.02
2022-08-23T21:17:29.326Z,8.43
2022-08-23T21:19:57.652Z,8.82
2022-08-23T21:22:31.956Z,9.40
2022-08-23T21:25:02.591Z,9.30
2022-08-23T21:27:31.352Z,8.35
2022-08-23T21:30:00.051Z,9.20
2022-08-23T21:32:29.370Z,9.02
2022-08-23T21:34:58.318Z,9.25
2022-08-23T21:37:27.224Z,8.65
2022-08-23T21:39:56.788Z,8.55
2022-08-23T21:42:27.146Z,9.50
2022-08-23T21:44:55.422Z,9.25
2022-08-23T21:47:24.490Z,9.07
2022-08-23T21:49:53.196Z,8.97
2022-08-23T21:52:23.595Z,9.32
2022-08-23T21:54:52.770Z,9.45
2022-08-23T21:57:21.204Z,9.82
2022-08-23T21:59:51.142Z,9.73
2022-08-23T22:02:20.038Z,8.77
2022-08-23T22:04:48.481Z,9.15
2022-08-23T22:07:17.192Z,10.43
2022-08-23T22:09:46.149Z,9.93
2022-08-23T22:12:14.754Z,9.55
2022-08-23T22:14:43.048Z,10.10
2022-08-23T22:17:14.602Z,9.88
2022-08-23T22:19:42.951Z,9.93
2022-08-23T22:22:11.510Z,10.05
2022-08-23T22:24:40.791Z,10.65
2022-08-23T22:27:09.649Z,10.57
2022-08-23T22:29:38.162Z,8.68
2022-08-23T22:32:07.477Z,9.93
2022-08-23T22:34:37.396Z,9.98
2022-08-23T22:37:06.527Z,9.77
2022-08-23T22:42:06.626Z,10.00
2022-08-23T22:44:39.160Z,11.23
2022-08-23T22:47:07.680Z,10.37
2022-08-23T22:49:37.406Z,11.20
2022-08-23T22:52:06.823Z,11.60
2022-08-23T22:54:35.276Z,11.20
2022-08-23T22:57:03.603Z,10.97
2022-08-23T22:59:32.994Z,12.20
2022-08-23T23:04:33.782Z,11.85
2022-08-23T23:07:04.113Z,13.00
2022-08-23T23:09:32.556Z,12.95
2022-08-23T23:12:01.250Z,12.82
2022-08-23T23:14:30.011Z,13.38
2022-08-23T23:16:58.530Z,11.97
2022-08-23T23:19:45.743Z,12.13
2022-08-23T23:22:16.546Z,13.88
2022-08-23T23:24:44.970Z,10.82
2022-08-23T23:27:13.264Z,12.90
2022-08-23T23:29:42.239Z,12.65
2022-08-23T23:32:10.610Z,13.25
2022-08-23T23:34:38.905Z,10.95
2022-08-23T23:37:07.530Z,11.00
2022-08-23T23:39:39.246Z,12.90
2022-08-23T23:42:09.365Z,12.73
2022-08-23T23:44:38.075Z,12.25
2022-08-23T23:47:06.312Z,12.20
2022-08-23T23:49:34.934Z,12.30
2022-08-23T23:52:05.242Z,12.18
2022-08-23T23:54:35.734Z,12.50
2022-08-23T23:57:06.849Z,12.43
2022-08-23T23:59:35.829Z,11.70
